createdAt,value
2023-01-15T00:02:26.893Z,8.10
2023-01-15T00:04:54.259Z,8.10
2023-01-15T00:07:21.760Z,8.20
2023-01-15T00:09:50.646Z,8.20
2023-01-15T00:12:17.865Z,8.20
2023-01-15T00:14:45.907Z,8.20
2023-01-15T00:17:13.237Z,8.20
2023-01-15T00:19:40.505Z,8.20
2023-01-15T00:22:07.989Z,8.20
2023-01-15T00:24:53.496Z,8.20
2023-01-15T00:27:38.914Z,8.30
2023-01-15T00:30:09.488Z,8.30
2023-01-15T00:32:36.781Z,8.30
2023-01-15T00:35:04.299Z,8.30
2023-01-15T00:37:31.629Z,8.30
2023-01-15T00:39:58.960Z,8.30
2023-01-15T00:42:28.298Z,8.30
2023-01-15T00:44:56.600Z,8.40
2023-01-15T00:47:23.954Z,8.30
2023-01-15T00:49:51.758Z,8.30
2023-01-15T00:52:18.953Z,8.30
2023-01-15T00:54:46.220Z,8.40
2023-01-15T00:57:13.468Z,8.40
2023-01-15T00:59:40.720Z,8.40
2023-01-15T01:02:08.168Z,8.40
2023-01-15T01:04:36.582Z,8.40
2023-01-15T01:07:04.127Z,8.40
2023-01-15T01:09:31.480Z,8.40
2023-01-15T01:11:59.946Z,8.40
2023-01-15T01:14:27.741Z,8.40
2023-01-15T01:16:54.987Z,8.40
2023-01-15T01:19:24.285Z,8.40
2023-01-15T01:21:54.176Z,8.40
2023-01-15T01:24:24.634Z,8.40
2023-01-15T01:26:54.290Z,8.40
2023-01-15T01:29:23.870Z,8.50
2023-01-15T01:31:51.629Z,8.50
2023-01-15T01:34:18.903Z,8.50
2023-01-15T01:36:46.155Z,8.50
2023-01-15T01:39:16.668Z,8.50
2023-01-15T01:41:45.399Z,8.50
2023-01-15T01:44:37.341Z,8.50
2023-01-15T01:47:10.274Z,8.50
2023-01-15T01:49:40.382Z,8.50
2023-01-15T01:52:11.199Z,8.50
2023-01-15T01:54:39.281Z,8.50
2023-01-15T01:57:09.948Z,8.50
2023-01-15T01:59:38.383Z,8.40
2023-01-15T02:02:06.549Z,8.50
2023-01-15T02:04:34.837Z,8.50
2023-01-15T02:07:03.613Z,8.50
2023-01-15T02:09:31.008Z,8.50
2023-01-15T02:12:09.403Z,8.50
2023-01-15T02:14:50.992Z,8.60
2023-01-15T02:17:30.308Z,8.60
2023-01-15T02:20:21.962Z,8.60
2023-01-15T02:22:49.393Z,8.60
2023-01-15T02:25:37.838Z,8.60
2023-01-15T02:28:16.103Z,8.60
2023-01-15T02:30:50.524Z,8.60
2023-01-15T02:33:24.417Z,8.60
2023-01-15T02:36:01.351Z,8.60
2023-01-15T02:38:34.344Z,8.60
2023-01-15T02:41:03.696Z,8.70
2023-01-15T02:43:36.383Z,8.60
2023-01-15T02:46:05.930Z,8.70
2023-01-15T02:48:36.368Z,8.70
2023-01-15T02:51:14.355Z,8.80
2023-01-15T02:53:44.904Z,8.80
2023-01-15T02:56:20.493Z,8.80
2023-01-15T02:58:51.233Z,8.80
2023-01-15T03:01:34.477Z,8.80
2023-01-15T03:04:13.676Z,8.80
2023-01-15T03:06:55.838Z,8.70
2023-01-15T03:09:23.790Z,8.80
2023-01-15T03:12:17.005Z,8.80
2023-01-15T03:15:11.888Z,8.80
2023-01-15T03:17:55.510Z,8.80
2023-01-15T03:20:28.115Z,8.80
2023-01-15T03:23:02.528Z,8.90
2023-01-15T03:25:44.252Z,8.90
2023-01-15T03:28:13.901Z,8.90
2023-01-15T03:30:41.854Z,8.90
2023-01-15T03:33:12.164Z,9.00
2023-01-15T03:35:50.342Z,9.00
2023-01-15T03:38:21.272Z,9.00
2023-01-15T03:41:00.629Z,9.00
2023-01-15T03:43:43.689Z,9.00
2023-01-15T03:46:39.187Z,9.00
2023-01-15T03:49:18.550Z,9.00
2023-01-15T03:52:11.834Z,9.00
2023-01-15T03:54:57.591Z,8.90
2023-01-15T03:57:34.946Z,8.90
2023-01-15T04:00:09.647Z,8.90
2023-01-15T04:02:37.775Z,9.00
2023-01-15T04:05:05.440Z,8.90
2023-01-15T04:07:33.299Z,9.00
2023-01-15T04:10:00.841Z,9.00
2023-01-15T04:12:28.369Z,9.00
2023-01-15T04:14:55.577Z,9.00
2023-01-15T04:17:22.962Z,9.00
2023-01-15T04:19:51.573Z,9.00
2023-01-15T04:22:18.834Z,9.10
2023-01-15T04:24:46.108Z,9.10
2023-01-15T04:27:13.515Z,9.00
2023-01-15T04:29:40.818Z,9.10
2023-01-15T04:32:09.023Z,9.10
2023-01-15T04:34:36.547Z,9.10
2023-01-15T04:37:03.772Z,9.10
2023-01-15T04:39:31.247Z,9.10
2023-01-15T04:42:16.714Z,9.10
2023-01-15T04:44:43.911Z,9.10
2023-01-15T04:47:11.247Z,9.20
2023-01-15T04:49:38.668Z,9.20
2023-01-15T04:52:06.125Z,9.20
2023-01-15T04:54:33.420Z,9.20
2023-01-15T04:57:00.678Z,9.20
2023-01-15T04:59:28.299Z,9.20
2023-01-15T05:02:05.068Z,9.10
2023-01-15T05:04:34.806Z,9.20
2023-01-15T05:07:03.766Z,9.10
2023-01-15T05:09:31.266Z,9.20
2023-01-15T05:11:58.543Z,9.20
2023-01-15T05:14:25.859Z,9.10
2023-01-15T05:16:53.103Z,9.00
2023-01-15T05:19:20.544Z,8.80
2023-01-15T05:21:47.945Z,8.50
2023-01-15T05:24:17.861Z,8.30
2023-01-15T05:26:45.198Z,8.00
2023-01-15T05:29:13.242Z,7.80
2023-01-15T05:31:42.915Z,7.70
2023-01-15T05:34:11.068Z,7.60
2023-01-15T05:36:39.042Z,7.70
2023-01-15T05:39:06.878Z,7.60
2023-01-15T05:41:51.881Z,7.50
2023-01-15T05:44:21.901Z,7.60
2023-01-15T05:46:50.864Z,7.50
2023-01-15T05:49:21.318Z,7.30
2023-01-15T05:51:49.367Z,7.20
2023-01-15T05:54:22.820Z,7.30
2023-01-15T05:56:52.894Z,7.30
2023-01-15T05:59:23.808Z,7.30
2023-01-15T06:01:51.885Z,7.30
2023-01-15T06:04:21.445Z,7.30
2023-01-15T06:06:50.556Z,7.30
2023-01-15T06:09:18.923Z,7.40
2023-01-15T06:11:47.358Z,7.30
2023-01-15T06:14:15.668Z,7.30
2023-01-15T06:16:43.329Z,7.30
2023-01-15T06:19:12.895Z,7.40
2023-01-15T06:21:40.468Z,7.40
2023-01-15T06:24:08.194Z,7.30
2023-01-15T06:26:35.875Z,7.30
2023-01-15T06:29:03.137Z,7.30
2023-01-15T06:31:30.687Z,7.30
2023-01-15T06:33:57.974Z,7.20
2023-01-15T06:36:28.813Z,7.20
2023-01-15T06:38:56.601Z,7.10
2023-01-15T06:41:44.670Z,7.10
2023-01-15T06:44:32.625Z,7.10
2023-01-15T06:47:21.236Z,7.20
2023-01-15T06:49:50.565Z,7.00
2023-01-15T06:52:17.848Z,7.00
2023-01-15T06:54:45.066Z,7.00
2023-01-15T06:57:12.460Z,7.10
2023-01-15T06:59:39.708Z,6.90
2023-01-15T07:02:07.212Z,7.00
2023-01-15T07:04:34.605Z,6.90
2023-01-15T07:07:01.747Z,6.90
2023-01-15T07:09:29.086Z,6.90
2023-01-15T07:11:56.274Z,6.80
2023-01-15T07:14:28.257Z,6.90
2023-01-15T07:16:56.006Z,6.60
2023-01-15T07:19:23.284Z,6.70
2023-01-15T07:21:50.918Z,6.70
2023-01-15T07:24:18.786Z,6.60
2023-01-15T07:26:46.237Z,6.60
2023-01-15T07:29:14.257Z,6.70
2023-01-15T07:31:41.913Z,6.70
2023-01-15T07:34:09.601Z,6.70
2023-01-15T07:36:37.457Z,6.50
2023-01-15T07:39:05.977Z,6.50
2023-01-15T07:41:52.088Z,6.40
2023-01-15T07:44:37.946Z,6.40
2023-01-15T07:47:33.251Z,6.50
2023-01-15T07:50:00.790Z,6.40
2023-01-15T07:52:28.136Z,6.30
2023-01-15T07:54:55.307Z,6.40
2023-01-15T07:57:23.178Z,6.40
2023-01-15T07:59:51.744Z,6.40
2023-01-15T08:02:19.096Z,6.40
2023-01-15T08:04:48.163Z,6.30
2023-01-15T08:07:15.993Z,6.30
2023-01-15T08:09:43.315Z,6.30
2023-01-15T08:12:29.743Z,6.30
2023-01-15T08:15:16.729Z,6.30
2023-01-15T08:17:46.635Z,6.40
2023-01-15T08:20:22.643Z,6.50
2023-01-15T08:22:50.493Z,6.40
2023-01-15T08:25:20.886Z,6.50
2023-01-15T08:27:48.479Z,6.50
2023-01-15T08:30:18.927Z,6.50
2023-01-15T08:32:46.710Z,6.60
2023-01-15T08:35:14.490Z,6.60
2023-01-15T08:37:43.065Z,6.60
2023-01-15T08:40:12.151Z,6.70
2023-01-15T08:42:39.830Z,6.60
2023-01-15T08:45:08.003Z,6.60
2023-01-15T08:47:35.220Z,6.50
2023-01-15T08:50:02.551Z,6.60
2023-01-15T08:52:29.811Z,6.60
2023-01-15T08:54:57.047Z,6.60
2023-01-15T08:57:24.293Z,6.60
2023-01-15T08:59:51.525Z,6.60
2023-01-15T09:02:18.808Z,6.60
2023-01-15T09:04:46.125Z,6.50
2023-01-15T09:07:13.468Z,6.50
2023-01-15T09:09:40.828Z,6.50
2023-01-15T09:12:09.078Z,6.60
2023-01-15T09:14:56.586Z,6.60
2023-01-15T09:17:23.655Z,6.70
2023-01-15T09:19:52.380Z,6.70
2023-01-15T09:22:19.758Z,6.60
2023-01-15T09:24:47.392Z,6.60
2023-01-15T09:27:14.699Z,6.60
2023-01-15T09:29:41.922Z,6.60
2023-01-15T09:32:10.490Z,6.60
2023-01-15T09:34:37.923Z,6.70
2023-01-15T09:37:05.102Z,6.70
2023-01-15T09:39:32.994Z,6.70
2023-01-15T09:42:29.062Z,6.80
2023-01-15T09:45:37.862Z,6.80
2023-01-15T09:48:14.120Z,6.80
2023-01-15T09:51:04.123Z,6.80
2023-01-15T09:53:51.094Z,6.90
2023-01-15T09:56:27.994Z,6.90
2023-01-15T09:58:58.200Z,6.90
2023-01-15T10:01:31.435Z,7.00
2023-01-15T10:04:09.521Z,7.00
2023-01-15T10:07:03.760Z,6.90
2023-01-15T10:09:37.691Z,7.00
2023-01-15T10:12:36.368Z,7.00
2023-01-15T10:15:41.057Z,7.00
2023-01-15T10:18:15.803Z,7.20
2023-01-15T10:20:45.894Z,7.20
2023-01-15T10:23:48.633Z,7.30
2023-01-15T10:26:21.856Z,7.30
2023-01-15T10:29:05.601Z,7.30
2023-01-15T10:32:19.220Z,7.20
2023-01-15T10:35:08.945Z,7.30
2023-01-15T10:37:47.159Z,7.30
2023-01-15T10:40:48.378Z,6.90
2023-01-15T10:43:30.211Z,6.90
2023-01-15T10:46:01.812Z,7.00
2023-01-15T10:48:57.049Z,7.00
2023-01-15T10:51:30.056Z,7.10
2023-01-15T10:54:05.155Z,7.20
2023-01-15T10:56:42.955Z,7.40
2023-01-15T10:59:16.997Z,7.50
2023-01-15T11:01:44.337Z,7.50
2023-01-15T11:04:13.880Z,7.50
2023-01-15T11:06:42.345Z,7.60
2023-01-15T11:09:19.238Z,7.60
2023-01-15T11:12:01.255Z,7.60
2023-01-15T11:15:01.151Z,7.70
2023-01-15T11:18:03.493Z,7.60
2023-01-15T11:20:37.646Z,7.60
2023-01-15T11:23:16.839Z,7.70
2023-01-15T11:25:57.536Z,7.60
2023-01-15T11:28:40.763Z,7.50
2023-01-15T11:31:08.915Z,7.60
2023-01-15T11:33:37.457Z,7.60
2023-01-15T11:36:08.170Z,7.60
2023-01-15T11:38:47.094Z,7.70
2023-01-15T11:41:45.967Z,7.70
2023-01-15T11:44:32.823Z,7.70
2023-01-15T11:47:18.903Z,7.70
2023-01-15T11:50:14.666Z,7.60
2023-01-15T11:52:55.194Z,7.60
2023-01-15T11:55:25.941Z,7.60
2023-01-15T11:57:54.723Z,7.60
2023-01-15T12:00:25.876Z,7.50
2023-01-15T12:03:00.531Z,7.60
2023-01-15T12:05:32.297Z,7.60
2023-01-15T12:08:03.898Z,7.70
2023-01-15T12:10:57.759Z,7.70
2023-01-15T12:13:47.611Z,7.90
2023-01-15T12:16:41.519Z,8.00
2023-01-15T12:19:50.711Z,8.00
2023-01-15T12:22:36.160Z,7.80
2023-01-15T12:25:12.514Z,7.90
2023-01-15T12:27:39.643Z,7.80
2023-01-15T12:30:21.877Z,7.90
2023-01-15T12:33:06.311Z,7.80
2023-01-15T12:35:43.595Z,7.80
2023-01-15T12:38:28.227Z,7.80
2023-01-15T12:41:06.865Z,7.70
2023-01-15T12:43:52.944Z,7.70
2023-01-15T12:46:25.802Z,7.60
2023-01-15T12:49:33.473Z,7.70
2023-01-15T12:52:11.677Z,7.80
2023-01-15T12:54:45.536Z,7.70
2023-01-15T12:57:25.004Z,7.70
2023-01-15T13:00:02.864Z,7.60
2023-01-15T13:02:39.211Z,7.70
2023-01-15T13:05:22.342Z,7.80
2023-01-15T13:08:10.639Z,7.80
2023-01-15T13:10:40.147Z,7.80
2023-01-15T13:13:18.262Z,7.90
2023-01-15T13:15:57.243Z,7.80
2023-01-15T13:18:53.591Z,7.70
2023-01-15T13:21:21.701Z,7.60
2023-01-15T13:24:23.399Z,7.60
2023-01-15T13:27:21.238Z,7.70
2023-01-15T13:30:28.416Z,7.70
2023-01-15T13:33:25.286Z,7.60
2023-01-15T13:35:56.912Z,7.50
2023-01-15T13:38:27.522Z,7.50
2023-01-15T13:40:57.445Z,7.60
2023-01-15T13:43:36.993Z,7.60
2023-01-15T13:46:07.897Z,7.60
2023-01-15T13:48:45.439Z,7.50
2023-01-15T13:51:27.512Z,7.50
2023-01-15T13:53:57.166Z,7.50
2023-01-15T13:56:30.816Z,7.60
2023-01-15T13:58:58.025Z,7.60
2023-01-15T14:01:26.975Z,7.60
2023-01-15T14:04:07.544Z,7.50
2023-01-15T14:06:46.180Z,7.30
2023-01-15T14:09:22.445Z,7.20
2023-01-15T14:37:01.034Z,6.70
2023-01-15T14:39:34.108Z,6.70
2023-01-15T14:42:25.198Z,6.70
2023-01-15T14:45:02.519Z,6.80
2023-01-15T14:47:34.883Z,6.80
2023-01-15T14:50:22.588Z,6.80
2023-01-15T14:53:00.126Z,6.60
2023-01-15T14:55:28.069Z,6.50
2023-01-15T14:58:03.302Z,6.50
2023-01-15T15:00:37.293Z,6.50
2023-01-15T15:03:16.969Z,6.50
2023-01-15T15:05:46.816Z,6.60
2023-01-15T15:08:15.781Z,6.60
2023-01-15T15:10:45.567Z,6.60
2023-01-15T15:13:28.166Z,6.60
2023-01-15T15:16:11.993Z,6.70
2023-01-15T15:19:01.746Z,6.70
2023-01-15T15:21:38.280Z,6.60
2023-01-15T15:24:23.681Z,6.60
2023-01-15T15:26:51.244Z,6.50
2023-01-15T15:29:20.899Z,6.40
2023-01-15T15:32:00.026Z,6.40
2023-01-15T15:34:32.368Z,6.40
2023-01-15T15:37:14.705Z,6.30
2023-01-15T15:40:15.213Z,6.30
2023-01-15T15:43:20.576Z,6.30
2023-01-15T15:46:14.742Z,6.20
2023-01-15T15:48:45.432Z,6.20
2023-01-15T15:51:34.054Z,6.20
2023-01-15T15:54:13.175Z,6.10
2023-01-15T15:56:46.947Z,6.10
2023-01-15T15:59:37.904Z,6.00
2023-01-15T16:02:36.296Z,6.00
2023-01-15T16:05:30.894Z,6.00
2023-01-15T16:08:16.266Z,6.00
2023-01-15T16:10:44.668Z,6.10
2023-01-15T16:13:23.530Z,6.00
2023-01-15T16:15:55.940Z,6.00
2023-01-15T16:18:32.062Z,6.00
2023-01-15T16:20:59.575Z,6.00
2023-01-15T16:23:31.321Z,6.00
2023-01-15T16:26:22.350Z,5.90
2023-01-15T16:28:57.624Z,5.90
2023-01-15T16:31:26.541Z,5.90
2023-01-15T16:33:58.857Z,5.80
2023-01-15T16:36:27.893Z,5.80
2023-01-15T16:38:55.739Z,5.80
2023-01-15T16:41:34.402Z,5.80
2023-01-15T16:44:04.120Z,5.80
2023-01-15T16:46:33.649Z,5.90
2023-01-15T16:49:33.985Z,5.80
2023-01-15T16:52:03.004Z,5.80
2023-01-15T16:54:30.248Z,5.80
2023-01-15T16:57:02.645Z,5.80
2023-01-15T16:59:30.483Z,5.70
2023-01-15T17:02:07.330Z,5.80
2023-01-15T17:04:37.360Z,5.70
2023-01-15T17:07:14.180Z,5.70
2023-01-15T17:09:48.412Z,5.70
2023-01-15T17:12:24.261Z,5.70
2023-01-15T17:14:51.801Z,5.70
2023-01-15T17:17:21.900Z,5.70
2023-01-15T17:19:55.394Z,5.60
2023-01-15T17:22:31.020Z,5.60
2023-01-15T17:25:00.553Z,5.60
2023-01-15T17:27:30.641Z,5.60
2023-01-15T17:29:57.833Z,5.50
2023-01-15T17:32:43.207Z,5.50
2023-01-15T17:35:23.531Z,5.50
2023-01-15T17:37:53.845Z,5.50
2023-01-15T17:40:21.746Z,5.50
2023-01-15T17:42:51.352Z,5.40
2023-01-15T17:45:27.221Z,5.40
2023-01-15T17:47:54.543Z,5.50
2023-01-15T17:50:22.521Z,5.30
2023-01-15T17:52:50.315Z,5.40
2023-01-15T17:55:42.044Z,5.40
2023-01-15T17:58:30.621Z,5.30
2023-01-15T18:01:16.850Z,5.30
2023-01-15T18:04:12.307Z,5.30
2023-01-15T18:06:42.672Z,5.30
2023-01-15T18:09:09.998Z,5.30
2023-01-15T18:11:37.228Z,5.30
2023-01-15T18:14:04.472Z,5.30
2023-01-15T18:16:32.265Z,5.30
2023-01-15T18:18:59.917Z,5.30
2023-01-15T18:21:27.666Z,5.30
2023-01-15T18:23:54.899Z,5.30
2023-01-15T18:26:22.175Z,5.30
2023-01-15T18:28:49.709Z,5.20
2023-01-15T18:31:17.225Z,5.20
2023-01-15T18:33:45.774Z,5.30
2023-01-15T18:36:14.914Z,5.20
2023-01-15T18:38:44.315Z,5.20
2023-01-15T18:41:35.676Z,5.30
2023-01-15T18:44:26.125Z,5.20
2023-01-15T18:46:56.243Z,5.20
2023-01-15T18:49:23.871Z,5.20
2023-01-15T18:52:21.105Z,5.20
2023-01-15T18:54:48.454Z,5.20
2023-01-15T18:57:16.740Z,5.30
2023-01-15T18:59:48.313Z,5.20
2023-01-15T19:02:17.078Z,5.30
2023-01-15T19:04:47.233Z,5.20
2023-01-15T19:07:18.763Z,5.20
2023-01-15T19:09:46.327Z,5.20
2023-01-15T19:12:15.321Z,5.20
2023-01-15T19:15:01.267Z,5.10
2023-01-15T19:17:47.089Z,5.20
2023-01-15T19:20:17.858Z,5.20
2023-01-15T19:23:00.243Z,5.20
2023-01-15T19:25:33.411Z,5.20
2023-01-15T19:28:00.881Z,5.10
2023-01-15T19:30:29.147Z,5.10
2023-01-15T19:32:59.810Z,5.10
2023-01-15T19:35:27.120Z,5.10
2023-01-15T19:37:55.322Z,5.10
2023-01-15T19:40:23.240Z,5.10
2023-01-15T19:43:14.734Z,5.10
2023-01-15T19:46:02.885Z,5.10
2023-01-15T19:48:48.958Z,5.10
2023-01-15T19:51:20.114Z,5.10
2023-01-15T19:53:47.754Z,5.20
2023-01-15T19:56:14.948Z,5.10
2023-01-15T19:58:42.253Z,5.10
2023-01-15T20:01:17.445Z,5.20
2023-01-15T20:03:46.372Z,5.10
2023-01-15T20:06:13.633Z,5.10
2023-01-15T20:08:40.865Z,5.10
2023-01-15T20:11:12.817Z,5.20
2023-01-15T20:13:55.216Z,5.30
2023-01-15T20:16:22.861Z,5.30
2023-01-15T20:18:51.938Z,5.30
2023-01-15T20:21:19.702Z,5.30
2023-01-15T20:23:47.045Z,5.20
2023-01-15T20:26:18.391Z,5.20
2023-01-15T20:28:47.817Z,5.20
2023-01-15T20:31:19.518Z,5.20
2023-01-15T20:33:47.527Z,5.30
2023-01-15T20:36:14.945Z,5.30
2023-01-15T20:38:42.347Z,5.30
2023-01-15T20:41:40.096Z,5.20
2023-01-15T20:44:26.047Z,5.10
2023-01-15T20:46:53.252Z,5.10
2023-01-15T20:50:16.028Z,5.00
2023-01-15T20:52:49.012Z,5.10
2023-01-15T20:55:18.277Z,5.10
2023-01-15T20:57:46.405Z,5.10
2023-01-15T21:00:16.848Z,5.10
2023-01-15T21:02:44.249Z,5.10
2023-01-15T21:05:11.634Z,5.10
2023-01-15T21:07:39.265Z,5.10
2023-01-15T21:10:08.877Z,5.10
2023-01-15T21:12:36.555Z,5.10
2023-01-15T21:15:04.138Z,5.00
2023-01-15T21:17:31.466Z,5.00
2023-01-15T21:19:58.696Z,5.00
2023-01-15T21:22:25.922Z,5.00
2023-01-15T21:24:53.183Z,5.00
2023-01-15T21:27:20.379Z,5.00
2023-01-15T21:29:51.988Z,5.00
2023-01-15T21:32:19.351Z,5.00
2023-01-15T21:34:46.576Z,5.00
2023-01-15T21:37:15.730Z,5.00
2023-01-15T21:39:43.006Z,5.00
2023-01-15T21:42:37.380Z,4.90
2023-01-15T21:45:06.499Z,5.00
2023-01-15T21:47:34.572Z,5.00
2023-01-15T21:50:03.096Z,5.10
2023-01-15T21:52:30.552Z,5.20
2023-01-15T21:54:57.838Z,5.20
2023-01-15T21:57:25.013Z,5.10
2023-01-15T21:59:52.187Z,5.00
2023-01-15T22:02:22.165Z,5.00
2023-01-15T22:04:50.628Z,5.00
2023-01-15T22:07:18.545Z,5.00
2023-01-15T22:09:45.962Z,5.10
2023-01-15T22:12:13.947Z,5.10
2023-01-15T22:14:41.246Z,5.10
2023-01-15T22:17:10.456Z,5.10
2023-01-15T22:19:37.818Z,5.10
2023-01-15T22:22:09.405Z,5.10
2023-01-15T22:24:39.527Z,5.10
2023-01-15T22:27:09.070Z,5.00
2023-01-15T22:29:40.724Z,5.00
2023-01-15T22:32:10.234Z,5.00
2023-01-15T22:34:37.652Z,5.00
2023-01-15T22:37:05.628Z,4.90
2023-01-15T22:39:32.888Z,4.90
2023-01-15T22:42:18.710Z,4.90
2023-01-15T22:44:47.130Z,4.90
2023-01-15T22:47:14.428Z,4.90
2023-01-15T22:49:41.743Z,4.90
2023-01-15T22:52:08.910Z,4.80
2023-01-15T22:54:36.191Z,4.90
2023-01-15T22:57:04.387Z,4.90
2023-01-15T22:59:31.501Z,4.80
2023-01-15T23:01:58.929Z,4.80
2023-01-15T23:04:26.407Z,4.80
2023-01-15T23:06:54.135Z,4.70
2023-01-15T23:09:24.091Z,4.70
2023-01-15T23:11:52.170Z,4.70
2023-01-15T23:14:21.305Z,4.70
2023-01-15T23:16:51.449Z,4.70
2023-01-15T23:19:19.373Z,4.60
2023-01-15T23:21:46.739Z,4.70
2023-01-15T23:24:14.073Z,4.60
2023-01-15T23:26:42.361Z,4.60
2023-01-15T23:29:09.527Z,4.60
2023-01-15T23:31:36.820Z,4.60
2023-01-15T23:34:04.177Z,4.50
2023-01-15T23:36:31.437Z,4.60
2023-01-15T23:38:58.737Z,4.60
2023-01-15T23:41:44.946Z,4.50
2023-01-15T23:44:35.852Z,4.50
2023-01-15T23:47:03.528Z,4.50
2023-01-15T23:49:30.935Z,4.40
2023-01-15T23:51:58.257Z,4.50
2023-01-15T23:54:30.228Z,4.60
2023-01-15T23:56:59.516Z,4.60
2023-01-15T23:59:27.374Z,4.70
